Terminal Aerodrome Forecast
Issued by NWS Tallahassee, FL

Home | Current Version | Previous Version | Text Only | Print | Product List | Glossary On
Versions: 1 2 3 4 5 6 7 8 9 10 11 12 13 14 15 16 17 18 19 20
000
FTUS42 KTAE 261937 AAA
TAFTLH
TAF AMD
KTLH 261937Z 2620/2718 22006KT 5SM -RA VCTS BKN025CB OVC040
     FM270000 21007KT 6SM -RA BKN025 OVC030
     FM270400 23006KT 5SM -RA BR BKN015 OVC025
     FM270900 27008KT P6SM OVC008
     FM271400 31010G15KT P6SM BKN025=

USA.gov is the U.S. government's official web portal to all federal, state and local government web resources and services.